CheckWX is a tool to help pilots better visualize weather data.  It is not intended as a substitute for an official pre-flight weather briefing.

05:11:50 UTC

KHVR METAR
Havre City-County Airport
Havre, Montana, USA
Current

19 mins ago

KHVR 240453Z AUTO 23009KT 10SM SCT013 OVC042 M21/M23 A3037 RMK AO2 SLP350 T12061228 $
Observed
Feb-24 @ 04:53 UTC
Wind
  • 230° at 9 KTS
Visibility
10 SM
Flight Rules
VFR
Cloud Levels
  • Scattered at 1,300' AGL
  • Overcast at 4,200' AGL
Temperature
-21°C / -6°F
Dewpoint
-23°C / -9°F
Humidity
84%
Altimeter
30.37" Hg
Pressure
1035 hPa
Previous

1 hour ago

KHVR 240353Z AUTO 23007KT 10SM SCT018 OVC049 M19/M22 A3037 RMK AO2 SLP347 T11941222 $
Observed
Feb-24 @ 03:53 UTC
Wind
  • 230° at 7 KTS
Visibility
10 SM
Flight Rules
VFR
Cloud Levels
  • Scattered at 1,800' AGL
  • Overcast at 4,900' AGL
Temperature
-19°C / -2°F
Dewpoint
-22°C / -8°F
Humidity
77%
Altimeter
30.37" Hg
Pressure
1034.7 hPa
Previous

2 hours ago

KHVR 240332Z AUTO 22009KT 7SM BKN024 OVC038 M20/M22 A3037 RMK AO2 T12001222 $
Observed
Feb-24 @ 03:32 UTC
Wind
  • 220° at 9 KTS
Visibility
7 SM
Flight Rules
MVFR
Cloud Levels
  • Broken at 2,400' AGL
  • Overcast at 3,800' AGL
Temperature
-20°C / -4°F
Dewpoint
-22°C / -8°F
Humidity
84%
Altimeter
30.37" Hg
Pressure
1028.42 hPa